Time;durP1;ratioP1;P1;durP2;ratioP2;P2;SDS_P1;SDS_P2;PMS_P1;PMS_P2;Temp;Humidity;BMP_temperature;BMP_pressure;BME280_temperature;BME280_humidity;BME280_pressure;Samples;Min_cycle;Max_cycle;Signal;HPM_P1;HPM_P2
2021/12/30 00:00:50;;;;;;;170.25;70.00;;;;;;;1.80;93.86;100181.10;1643667;85;25782;-82
2021/12/30 00:03:16;;;;;;;181.30;74.60;;;;;;;1.81;93.86;100178.34;1605717;87;25866;-82
2021/12/30 00:05:42;;;;;;;166.68;70.50;;;;;;;1.80;93.85;100183.27;1603185;89;25814;-83
2021/12/30 00:08:09;;;;;;;172.93;71.50;;;;;;;1.78;93.77;100179.09;1605059;87;27413;-83
2021/12/30 00:10:36;;;;;;;170.22;72.30;;;;;;;1.80;93.96;100180.63;1608178;87;25927;-82
2021/12/30 00:13:03;;;;;;;171.05;69.17;;;;;;;1.80;93.97;100187.70;1639353;86;25332;-82
2021/12/30 00:15:30;;;;;;;166.65;69.65;;;;;;;1.78;93.93;100186.53;1607653;87;26551;-82
2021/12/30 00:17:56;;;;;;;159.35;69.70;;;;;;;1.79;94.03;100185.58;1578277;89;25878;-81
2021/12/30 00:20:23;;;;;;;182.30;72.15;;;;;;;1.81;94.11;100182.78;1646041;86;27468;-81
2021/12/30 00:22:51;;;;;;;162.43;67.92;;;;;;;1.82;94.04;100177.35;1603932;87;25932;-84
2021/12/30 00:25:17;;;;;;;168.43;69.20;;;;;;;1.83;94.12;100180.35;1580460;89;25836;-83
2021/12/30 00:27:43;;;;;;;157.97;65.72;;;;;;;1.86;94.06;100176.60;1581237;89;25932;-81
2021/12/30 00:30:12;;;;;;;159.82;68.12;;;;;;;1.88;94.07;100177.29;1578452;90;25626;-82
2021/12/30 00:32:39;;;;;;;153.60;67.10;;;;;;;1.89;94.04;100178.46;1638280;85;27465;-82
2021/12/30 00:35:07;;;;;;;156.00;68.37;;;;;;;1.92;94.08;100180.83;1635718;86;25888;-83
2021/12/30 00:37:33;;;;;;;162.72;69.35;;;;;;;1.93;94.16;100182.48;1612646;87;25847;-82
2021/12/30 00:40:00;;;;;;;154.38;68.97;;;;;;;1.96;94.17;100184.02;1578095;89;25935;-82
2021/12/30 00:42:26;;;;;;;166.00;71.45;;;;;;;1.97;94.21;100183.02;1584865;89;26606;-82
2021/12/30 00:44:52;;;;;;;172.65;77.62;;;;;;;1.98;94.15;100182.06;1636595;85;28331;-82
2021/12/30 00:47:18;;;;;;;155.10;72.17;;;;;;;1.97;94.08;100176.41;1638896;85;26034;-83
2021/12/30 00:49:44;;;;;;;163.43;67.92;;;;;;;1.96;94.24;100170.33;1637383;86;25836;-82
2021/12/30 00:52:10;;;;;;;152.07;67.55;;;;;;;1.97;94.28;100169.81;1638157;85;25818;-82
2021/12/30 00:54:37;;;;;;;160.03;67.25;;;;;;;1.98;94.34;100168.85;1636709;86;25862;-84
2021/12/30 00:57:03;;;;;;;145.43;65.05;;;;;;;1.99;94.47;100171.86;1604116;87;28050;-83
2021/12/30 00:59:30;;;;;;;147.90;64.50;;;;;;;2.02;94.52;100171.55;1640359;85;25910;-83
2021/12/30 01:01:56;;;;;;;152.57;63.35;;;;;;;2.02;94.44;100173.71;1643291;85;25990;-82
2021/12/30 01:04:22;;;;;;;151.00;64.20;;;;;;;2.05;94.41;100170.77;1642286;85;25850;-83
2021/12/30 01:06:48;;;;;;;156.35;65.78;;;;;;;2.06;94.39;100168.48;1636901;85;25927;-82
2021/12/30 01:09:14;;;;;;;148.90;65.65;;;;;;;2.08;94.40;100162.56;1636956;86;27544;-81
2021/12/30 01:11:41;;;;;;;154.55;65.08;;;;;;;2.10;94.39;100162.41;1603855;87;26689;-85
2021/12/30 01:14:17;;;;;;;135.72;61.08;;;;;;;2.09;94.25;100161.61;1604494;88;25903;-82
2021/12/30 01:16:42;;;;;;;139.77;62.17;;;;;;;2.10;94.25;100163.73;1639226;87;25902;-84
2021/12/30 01:19:42;;;;;;;150.47;62.05;;;;;;;2.12;94.30;100157.81;1639699;87;25889;-82
2021/12/30 01:21:54;;;;;;;144.35;62.78;;;;;;;2.12;94.26;100161.30;1637999;85;28482;-83
2021/12/30 01:24:22;;;;;;;140.90;61.23;;;;;;;2.13;94.38;100159.02;1605756;87;25877;-83
2021/12/30 01:26:48;;;;;;;136.43;57.67;;;;;;;2.13;94.37;100160.82;1643957;86;26556;-82
2021/12/30 01:29:15;;;;;;;139.75;60.73;;;;;;;2.14;94.36;100167.27;1636239;86;26648;-82
2021/12/30 01:31:41;;;;;;;142.20;60.03;;;;;;;2.13;94.42;100173.55;1604126;87;25387;-82
2021/12/30 01:34:07;;;;;;;127.22;59.38;;;;;;;2.13;94.42;100176.19;1639365;85;28276;-81
2021/12/30 01:36:33;;;;;;;131.47;59.45;;;;;;;2.11;94.43;100178.14;1608672;87;26012;-81
2021/12/30 01:39:00;;;;;;;127.95;55.90;;;;;;;2.11;94.45;100168.90;1578342;89;25825;-84
2021/12/30 01:41:26;;;;;;;139.25;58.42;;;;;;;2.14;94.51;100173.88;1639865;85;26707;-82
2021/12/30 01:43:52;;;;;;;135.93;59.85;;;;;;;2.14;94.57;100169.91;1637540;86;25899;-83
2021/12/30 01:46:19;;;;;;;133.47;55.58;;;;;;;2.14;94.65;100165.95;1602713;87;27472;-82
2021/12/30 01:48:45;;;;;;;123.28;55.00;;;;;;;2.15;94.70;100164.99;1637805;86;26255;-82
2021/12/30 01:51:12;;;;;;;127.17;56.33;;;;;;;2.17;94.66;100173.61;1613558;85;25913;-82
2021/12/30 01:53:38;;;;;;;129.12;56.68;;;;;;;2.17;94.71;100170.96;1604107;87;26541;-82
2021/12/30 01:56:06;;;;;;;131.30;56.53;;;;;;;2.18;94.55;100168.65;1584359;89;26343;-82
2021/12/30 01:58:35;;;;;;;119.53;53.10;;;;;;;2.19;94.75;100172.97;1637902;86;27534;-84
2021/12/30 02:01:03;;;;;;;122.40;56.23;;;;;;;2.19;94.76;100174.30;1639050;85;25787;-82
2021/12/30 02:03:29;;;;;;;120.67;52.43;;;;;;;2.20;94.79;100177.77;1602045;87;25347;-81
2021/12/30 02:05:55;;;;;;;122.85;52.23;;;;;;;2.20;94.78;100178.58;1634057;87;26537;-83
2021/12/30 02:08:21;;;;;;;130.93;57.25;;;;;;;2.21;94.91;100180.27;1638126;85;25694;-82
2021/12/30 02:10:50;;;;;;;121.00;53.80;;;;;;;2.23;94.96;100178.30;1637032;86;27648;-83
2021/12/30 02:13:18;;;;;;;129.12;55.78;;;;;;;2.23;95.02;100176.98;1643300;86;25925;-82
2021/12/30 02:15:45;;;;;;;117.80;54.30;;;;;;;2.22;94.98;100177.14;1603404;88;25744;-82
2021/12/30 02:18:11;;;;;;;116.25;52.25;;;;;;;2.21;95.01;100186.03;1636093;85;25821;-83
2021/12/30 02:20:49;;;;;;;115.62;53.15;;;;;;;2.23;95.10;100184.08;1640196;86;25871;-82
2021/12/30 02:23:20;;;;;;;118.00;51.95;;;;;;;2.23;95.12;100186.72;1604383;87;28322;-84
2021/12/30 02:25:49;;;;;;;119.13;53.68;;;;;;;2.23;95.23;100180.11;1641059;86;25962;-82
2021/12/30 02:28:18;;;;;;;121.75;53.63;;;;;;;2.23;95.23;100179.63;1638500;86;25856;-83
2021/12/30 02:30:45;;;;;;;128.68;56.80;;;;;;;2.23;95.26;100183.59;1607048;87;25858;-83
2021/12/30 02:33:13;;;;;;;120.40;53.10;;;;;;;2.24;95.25;100187.08;1582638;89;25936;-83
2021/12/30 02:35:40;;;;;;;118.35;53.45;;;;;;;2.24;95.29;100183.11;1636911;86;28307;-83
2021/12/30 02:38:06;;;;;;;125.35;56.65;;;;;;;2.25;95.25;100192.69;1638510;85;25909;-81
2021/12/30 02:40:41;;;;;;;131.15;62.58;;;;;;;2.25;95.28;100186.92;1638811;86;25844;-83
2021/12/30 02:43:15;;;;;;;139.85;66.65;;;;;;;2.24;95.34;100193.20;1637710;85;25819;-83
2021/12/30 02:45:43;;;;;;;139.60;64.30;;;;;;;2.24;95.36;100187.08;1641953;86;26245;-81
2021/12/30 02:48:16;;;;;;;130.35;61.40;;;;;;;2.23;95.41;100178.79;1642501;85;27692;-83
2021/12/30 02:50:45;;;;;;;125.67;56.33;;;;;;;2.21;95.45;100180.27;1635018;86;25878;-83
2021/12/30 02:53:12;;;;;;;120.20;56.50;;;;;;;2.22;95.67;100178.46;1639244;85;26584;-83
2021/12/30 02:55:40;;;;;;;120.57;54.70;;;;;;;2.22;95.74;100178.46;1642077;85;25809;-84
2021/12/30 02:58:07;;;;;;;121.22;54.35;;;;;;;2.22;95.83;100178.46;1642168;85;25957;-82
2021/12/30 03:00:35;;;;;;;120.50;57.48;;;;;;;2.22;95.88;100178.46;1639623;86;27644;-82
2021/12/30 03:03:01;;;;;;;122.75;57.03;;;;;;;2.21;95.90;100169.70;1641617;85;25814;-82
2021/12/30 03:05:27;;;;;;;126.15;55.65;;;;;;;2.22;95.93;100163.93;1641015;86;25982;-82
2021/12/30 03:07:54;;;;;;;120.35;55.30;;;;;;;2.23;95.95;100168.22;1628894;85;26388;-83
2021/12/30 03:10:25;;;;;;;122.92;56.60;;;;;;;2.24;95.96;100175.19;1605750;87;25883;-82
2021/12/30 03:13:03;;;;;;;110.72;53.05;;;;;;;2.24;95.98;100173.38;1601771;87;27513;-83
2021/12/30 03:15:29;;;;;;;116.73;54.73;;;;;;;2.27;96.09;100172.23;1635488;86;25583;-83
2021/12/30 03:17:55;;;;;;;118.90;53.83;;;;;;;2.29;96.14;100184.81;1603725;87;25864;-82
2021/12/30 03:20:21;;;;;;;118.37;51.77;;;;;;;2.29;96.03;100192.74;1602228;89;25869;-83
2021/12/30 03:22:48;;;;;;;117.50;53.83;;;;;;;2.28;96.09;100191.94;1603274;87;25995;-82
2021/12/30 03:25:17;;;;;;;118.72;54.85;;;;;;;2.29;96.22;100181.69;1639586;87;27446;-84
2021/12/30 03:27:44;;;;;;;118.57;53.15;;;;;;;2.30;96.27;100191.30;1638109;85;25851;-83
2021/12/30 03:30:15;;;;;;;124.90;52.40;;;;;;;2.31;96.29;100192.11;1642915;86;25771;-82
2021/12/30 03:32:41;;;;;;;116.80;51.90;;;;;;;2.31;96.30;100194.75;1631744;85;25800;-82
2021/12/30 03:35:09;;;;;;;111.15;50.03;;;;;;;2.33;96.42;100202.08;1636623;86;26603;-82
2021/12/30 03:37:37;;;;;;;116.10;54.50;;;;;;;2.33;96.37;100213.45;1637641;86;27511;-83
2021/12/30 03:40:07;;;;;;;104.27;50.05;;;;;;;2.33;96.45;100211.33;1636223;86;26110;-82
2021/12/30 03:42:34;;;;;;;110.65;52.30;;;;;;;2.33;96.53;100214.78;1637617;85;32544;-83
2021/12/30 03:45:02;;;;;;;111.17;50.08;;;;;;;2.34;96.56;100222.23;1638096;86;25775;-81
2021/12/30 03:47:29;;;;;;;107.80;51.15;;;;;;;2.33;96.67;100236.44;1639824;85;25808;-82
2021/12/30 03:49:55;;;;;;;113.22;50.60;;;;;;;2.33;96.69;100247.00;1639827;87;27512;-83
2021/12/30 03:52:30;;;;;;;104.03;49.30;;;;;;;2.33;96.78;100243.84;1643832;85;25892;-83
2021/12/30 03:54:53;;;;;;;100.38;48.55;;;;;;;2.33;96.89;100246.49;1602019;87;25609;-81
2021/12/30 03:57:20;;;;;;;105.60;50.08;;;;;;;2.33;97.08;100250.97;1602269;87;25901;-82
2021/12/30 03:59:46;;;;;;;102.17;50.35;;;;;;;2.33;97.23;100248.33;1597779;87;25394;-82
2021/12/30 04:02:12;;;;;;;106.50;50.95;;;;;;;2.33;97.46;100253.61;1602145;88;27083;-81
2021/12/30 04:04:39;;;;;;;102.78;48.33;;;;;;;2.37;97.45;100255.47;1600819;88;26046;-82
2021/12/30 04:07:05;;;;;;;106.60;47.50;;;;;;;2.37;97.39;100258.95;1601239;87;25468;-81
2021/12/30 04:09:31;;;;;;;103.53;50.20;;;;;;;2.38;97.48;100254.00;1604674;89;26544;-81
2021/12/30 04:11:58;;;;;;;110.85;49.25;;;;;;;2.39;97.50;100250.87;1579256;89;25828;-81
2021/12/30 04:14:26;;;;;;;106.60;50.52;;;;;;;2.39;97.58;100253.03;1636025;86;28274;-82
2021/12/30 04:16:53;;;;;;;101.10;50.35;;;;;;;2.41;97.62;100250.23;1638000;86;25860;-82
2021/12/30 04:19:20;;;;;;;106.80;51.05;;;;;;;2.41;97.79;100256.37;1638854;86;25980;-82
2021/12/30 04:21:46;;;;;;;110.08;52.48;;;;;;;2.41;97.69;100252.41;1638140;86;25841;-82
2021/12/30 04:24:13;;;;;;;108.95;52.55;;;;;;;2.44;97.60;100249.97;1634759;86;25736;-82
2021/12/30 04:26:39;;;;;;;108.03;48.20;;;;;;;2.45;97.60;100251.14;1603884;87;28976;-82
2021/12/30 04:29:05;;;;;;;104.78;49.38;;;;;;;2.46;97.54;100248.81;1604256;87;25912;-81
2021/12/30 04:31:32;;;;;;;99.83;47.50;;;;;;;2.47;97.54;100248.34;1579181;90;26022;-83
2021/12/30 04:33:59;;;;;;;94.50;43.45;;;;;;;2.48;97.52;100251.34;1603279;87;25987;-84
2021/12/30 04:36:25;;;;;;;97.45;46.37;;;;;;;2.47;97.68;100243.89;1579852;89;25904;-81
2021/12/30 04:38:52;;;;;;;108.42;50.00;;;;;;;2.45;97.73;100244.52;1604304;89;27557;-82
2021/12/30 04:41:18;;;;;;;111.42;50.48;;;;;;;2.45;97.89;100250.30;1603327;87;25918;-81
2021/12/30 04:43:44;;;;;;;100.25;48.38;;;;;;;2.46;97.89;100251.98;1605766;87;25891;-82
2021/12/30 04:46:11;;;;;;;106.05;47.27;;;;;;;2.47;97.93;100253.63;1598705;87;26830;-83
2021/12/30 04:48:37;;;;;;;109.12;49.13;;;;;;;2.47;98.04;100249.18;1638167;87;25943;-83
2021/12/30 04:51:03;;;;;;;112.35;50.73;;;;;;;2.48;98.05;100250.83;1638492;85;27467;-83
2021/12/30 04:53:30;;;;;;;107.85;49.90;;;;;;;2.51;98.08;100243.11;1613697;87;25805;-82
2021/12/30 04:55:56;;;;;;;106.90;47.00;;;;;;;2.51;98.05;100242.62;1603065;87;25957;-81
2021/12/30 04:58:22;;;;;;;102.97;49.18;;;;;;;2.53;98.13;100240.67;1610892;87;26527;-82
2021/12/30 05:00:48;;;;;;;109.52;52.55;;;;;;;2.53;98.03;100238.02;1604173;89;25344;-82
2021/12/30 05:03:15;;;;;;;111.52;48.05;;;;;;;2.53;97.96;100239.83;1641595;85;28633;-82
2021/12/30 05:05:51;;;;;;;108.22;49.93;;;;;;;2.52;97.94;100239.02;1639697;86;25836;-83
2021/12/30 05:08:22;;;;;;;109.92;47.05;;;;;;;2.52;97.92;100242.98;1601948;87;25824;-81
2021/12/30 05:10:49;;;;;;;106.35;47.38;;;;;;;2.52;98.03;100252.72;1639675;86;26811;-82
2021/12/30 05:13:17;;;;;;;100.95;44.00;;;;;;;2.52;97.99;100258.00;1609216;87;25807;-82
2021/12/30 05:15:46;;;;;;;96.08;43.58;;;;;;;2.53;98.02;100255.69;1604604;88;28071;-83
2021/12/30 05:18:15;;;;;;;100.12;45.65;;;;;;;2.52;98.05;100248.75;1640628;85;25927;-84
2021/12/30 05:20:42;;;;;;;107.37;46.20;;;;;;;2.52;98.08;100244.31;1636519;87;25868;-81
2021/12/30 05:23:09;;;;;;;106.27;42.45;;;;;;;2.53;98.13;100240.67;1636929;85;25784;-82
2021/12/30 05:25:37;;;;;;;95.32;44.20;;;;;;;2.54;98.14;100235.73;1640094;87;25824;-81
2021/12/30 05:28:04;;;;;;;96.32;41.88;;;;;;;2.57;98.18;100239.40;1644852;85;27483;-83
2021/12/30 05:30:30;;;;;;;90.22;41.37;;;;;;;2.60;98.11;100240.92;1643249;86;25861;-82
2021/12/30 05:32:57;;;;;;;95.80;41.83;;;;;;;2.59;98.01;100251.17;1599945;87;26048;-82
2021/12/30 05:35:24;;;;;;;90.42;39.98;;;;;;;2.61;97.98;100251.86;1641697;86;26585;-83
2021/12/30 05:37:50;;;;;;;83.55;41.10;;;;;;;2.62;98.07;100257.48;1603708;87;25806;-81
2021/12/30 05:40:19;;;;;;;84.77;38.88;;;;;;;2.63;98.02;100261.29;1604586;87;28358;-82
2021/12/30 05:42:46;;;;;;;84.83;37.30;;;;;;;2.64;98.00;100265.61;1638611;85;26392;-82
2021/12/30 05:45:14;;;;;;;85.72;38.40;;;;;;;2.64;97.95;100269.58;1604630;88;26345;-83
2021/12/30 05:47:46;;;;;;;84.20;37.00;;;;;;;2.64;98.01;100272.70;1639553;85;25868;-82
2021/12/30 05:50:15;;;;;;;78.62;33.53;;;;;;;2.67;98.11;100279.05;1636190;86;25881;-82
2021/12/30 05:52:41;;;;;;;87.97;37.90;;;;;;;2.66;97.98;100282.65;1638933;84;27477;-83
2021/12/30 05:55:08;;;;;;;88.27;38.35;;;;;;;2.68;98.08;100283.34;1642482;86;25836;-83
2021/12/30 05:57:34;;;;;;;79.32;35.28;;;;;;;2.68;98.01;100274.08;1640451;85;26483;-83
2021/12/30 06:00:02;;;;;;;72.12;34.65;;;;;;;2.68;97.88;100268.79;1639428;86;26430;-82
2021/12/30 06:02:30;;;;;;;86.65;38.58;;;;;;;2.66;97.72;100274.72;1636845;86;25976;-81
2021/12/30 06:04:56;;;;;;;92.88;40.28;;;;;;;2.66;97.71;100286.61;1637943;86;27552;-83
2021/12/30 06:07:22;;;;;;;80.83;37.10;;;;;;;2.65;97.66;100288.42;1639308;86;26034;-82
2021/12/30 06:09:48;;;;;;;80.55;37.17;;;;;;;2.63;97.67;100296.98;1645358;85;25945;-82
2021/12/30 06:12:15;;;;;;;88.47;39.48;;;;;;;2.61;97.69;100301.58;1642751;85;26376;-81
2021/12/30 06:14:41;;;;;;;84.97;38.35;;;;;;;2.60;97.74;100301.26;1636654;85;25910;-82
2021/12/30 06:17:08;;;;;;;92.60;38.80;;;;;;;2.58;97.76;100295.77;1602797;87;27552;-83
2021/12/30 06:19:34;;;;;;;93.52;39.00;;;;;;;2.57;97.89;100296.24;1635395;86;26529;-82
2021/12/30 06:22:00;;;;;;;91.45;39.88;;;;;;;2.58;97.90;100299.25;1640128;85;25838;-81
2021/12/30 06:24:27;;;;;;;94.87;44.25;;;;;;;2.56;97.84;100292.42;1634602;87;25820;-81
2021/12/30 06:26:53;;;;;;;95.62;41.50;;;;;;;2.57;97.80;100305.97;1639715;85;25852;-83
2021/12/30 06:29:19;;;;;;;92.02;40.98;;;;;;;2.57;97.78;100303.33;1644782;86;28265;-82
2021/12/30 06:31:45;;;;;;;92.05;42.30;;;;;;;2.57;97.81;100294.08;1638024;85;25811;-82
2021/12/30 06:34:12;;;;;;;101.18;41.92;;;;;;;2.57;97.93;100294.08;1639461;86;25340;-82
2021/12/30 06:36:38;;;;;;;95.25;41.55;;;;;;;2.57;97.93;100290.95;1636344;85;25823;-82
2021/12/30 06:39:05;;;;;;;99.90;42.67;;;;;;;2.57;97.93;100298.89;1603970;87;25883;-82
2021/12/30 06:41:32;;;;;;;92.17;40.67;;;;;;;2.59;97.94;100300.09;1579520;89;27492;-85
2021/12/30 06:43:58;;;;;;;94.92;40.25;;;;;;;2.59;98.03;100307.50;1641529;87;26275;-83
2021/12/30 06:46:25;;;;;;;90.10;39.73;;;;;;;2.61;98.09;100307.38;1603658;87;25580;-80
2021/12/30 06:48:51;;;;;;;90.83;41.77;;;;;;;2.61;98.04;100317.45;1635835;86;26543;-83
2021/12/30 06:51:21;;;;;;;95.50;41.30;;;;;;;2.62;98.03;100309.03;1639422;85;25828;-82
2021/12/30 06:53:47;;;;;;;94.32;41.02;;;;;;;2.63;98.05;100323.42;1641777;85;27488;-83
2021/12/30 06:56:14;;;;;;;96.08;43.30;;;;;;;2.63;98.11;100319.45;1603567;87;25827;-81
2021/12/30 06:58:41;;;;;;;89.67;40.52;;;;;;;2.64;98.10;100329.08;1603510;88;25690;-82
2021/12/30 07:01:08;;;;;;;76.17;37.85;;;;;;;2.64;98.09;100328.23;1645682;85;26635;-83
2021/12/30 07:03:34;;;;;;;92.62;40.80;;;;;;;2.64;98.17;100337.01;1646953;85;25799;-82
2021/12/30 07:06:00;;;;;;;84.35;39.18;;;;;;;2.64;98.19;100338.33;1638464;87;27458;-82
2021/12/30 07:08:27;;;;;;;84.17;38.75;;;;;;;2.66;98.22;100338.17;1640326;86;25927;-82
2021/12/30 07:10:53;;;;;;;79.75;37.23;;;;;;;2.67;98.27;100342.02;1606591;87;26535;-82
2021/12/30 07:13:19;;;;;;;76.22;36.28;;;;;;;2.68;98.23;100342.36;1630572;86;26643;-81
2021/12/30 07:15:46;;;;;;;79.80;35.92;;;;;;;2.68;98.26;100337.55;1605313;87;25821;-82
2021/12/30 07:18:12;;;;;;;85.38;38.28;;;;;;;2.68;98.27;100339.71;1579301;89;28264;-82
2021/12/30 07:20:38;;;;;;;86.40;39.48;;;;;;;2.69;98.28;100342.72;1640121;87;25871;-83
2021/12/30 07:23:04;;;;;;;90.50;42.53;;;;;;;2.70;98.28;100338.23;1639526;86;26419;-82
2021/12/30 07:25:31;;;;;;;90.77;42.58;;;;;;;2.71;98.28;100342.56;1640239;87;25933;-81
2021/12/30 07:27:57;;;;;;;85.00;41.02;;;;;;;2.72;98.30;100346.38;1639064;86;25856;-82
2021/12/30 07:30:26;;;;;;;85.38;40.35;;;;;;;2.72;98.28;100352.98;1637920;86;27470;-83
2021/12/30 07:32:53;;;;;;;87.05;41.60;;;;;;;2.76;98.33;100349.59;1637731;85;26571;-82
2021/12/30 07:35:20;;;;;;;79.03;39.10;;;;;;;2.78;98.35;100358.22;1637217;86;25971;-83
2021/12/30 07:37:49;;;;;;;85.57;42.08;;;;;;;2.79;98.27;100354.09;1636950;85;26574;-83
2021/12/30 07:40:16;;;;;;;89.13;42.20;;;;;;;2.78;98.25;100357.70;1606457;87;25955;-83
2021/12/30 07:42:43;;;;;;;80.83;38.53;;;;;;;2.79;98.23;100352.77;1605101;87;27115;-81
2021/12/30 07:45:11;;;;;;;77.12;38.98;;;;;;;2.82;98.28;100347.69;1612978;87;25880;-82
2021/12/30 07:47:39;;;;;;;79.22;37.83;;;;;;;2.84;98.30;100345.25;1637264;85;26592;-81
2021/12/30 08:03:19;;;;;;;74.60;37.48;;;;;;;3.64;95.85;100344.59;1774604;79;25836;-82
2021/12/30 08:05:45;;;;;;;70.17;35.13;;;;;;;3.43;96.25;100349.31;1753544;81;25757;-83
2021/12/30 08:08:11;;;;;;;74.60;36.95;;;;;;;3.35;96.65;100349.22;1746974;80;28054;-82
2021/12/30 08:10:38;;;;;;;75.47;37.85;;;;;;;3.30;96.92;100351.46;1753744;80;25698;-81
2021/12/30 08:13:04;;;;;;;76.35;36.73;;;;;;;3.25;97.07;100354.55;1752782;80;25876;-82
2021/12/30 08:15:30;;;;;;;78.75;36.83;;;;;;;3.22;97.21;100354.02;1755384;81;25823;-82
2021/12/30 08:17:57;;;;;;;75.50;38.50;;;;;;;3.20;97.37;100357.30;1745918;80;25801;-83
2021/12/30 08:20:24;;;;;;;72.22;37.23;;;;;;;3.17;97.48;100361.06;1746813;80;27509;-81
2021/12/30 08:22:52;;;;;;;80.72;38.83;;;;;;;3.17;97.59;100362.87;1749388;80;25435;-83
2021/12/30 08:25:20;;;;;;;76.42;39.03;;;;;;;3.14;97.63;100354.24;1747511;81;25334;-84
2021/12/30 08:27:47;;;;;;;82.37;40.55;;;;;;;3.13;97.63;100353.91;1743400;80;25817;-81
2021/12/30 08:30:19;;;;;;;80.42;39.70;;;;;;;3.11;97.65;100360.33;1748674;81;25878;-83
2021/12/30 08:32:46;;;;;;;79.60;38.35;;;;;;;3.10;97.69;100359.48;1749367;80;28243;-81
2021/12/30 08:35:15;;;;;;;74.45;37.50;;;;;;;3.10;97.76;100358.67;1760788;81;26020;-81
2021/12/30 08:37:42;;;;;;;79.32;37.45;;;;;;;3.08;97.76;100360.60;1709233;83;25907;-82
2021/12/30 08:40:12;;;;;;;80.95;38.23;;;;;;;3.08;97.84;100365.41;1693293;84;25852;-81
2021/12/30 08:42:39;;;;;;;73.42;38.48;;;;;;;3.09;97.96;100359.16;1691936;83;27073;-83
2021/12/30 08:45:07;;;;;;;77.82;37.08;;;;;;;3.09;97.96;100363.13;1686760;83;28086;-82
2021/12/30 08:47:33;;;;;;;92.22;44.70;;;;;;;3.08;97.97;100365.41;1683578;83;26466;-81
2021/12/30 08:50:00;;;;;;;85.62;43.65;;;;;;;3.09;98.02;100372.39;1685861;83;25818;-82
2021/12/30 08:52:28;;;;;;;76.55;39.50;;;;;;;3.12;98.06;100375.23;1688026;83;25971;-81
2021/12/30 08:55:04;;;;;;;80.47;39.73;;;;;;;3.13;98.11;100371.11;1686028;83;25841;-83
2021/12/30 08:57:30;;;;;;;85.32;39.23;;;;;;;3.16;98.27;100377.94;1689908;83;27652;-81
2021/12/30 08:59:57;;;;;;;81.12;39.03;;;;;;;3.19;98.36;100381.59;1685855;83;26314;-83
2021/12/30 09:02:23;;;;;;;81.78;40.73;;;;;;;3.21;98.29;100375.67;1707795;82;25779;-83
2021/12/30 09:04:50;;;;;;;78.57;39.15;;;;;;;3.21;98.27;100366.41;1694151;84;25895;-81
2021/12/30 09:07:18;;;;;;;80.45;37.90;;;;;;;3.23;98.20;100353.86;1693929;83;25387;-82
2021/12/30 09:09:46;;;;;;;78.57;38.95;;;;;;;3.25;98.19;100357.70;1665454;84;28061;-82
2021/12/30 09:12:13;;;;;;;84.15;39.53;;;;;;;3.26;98.07;100345.64;1701202;82;25938;-81
2021/12/30 09:14:39;;;;;;;85.83;40.65;;;;;;;3.29;98.09;100346.69;1690217;82;25836;-81
2021/12/30 09:17:06;;;;;;;83.95;40.52;;;;;;;3.31;98.09;100350.02;1691945;82;25861;-82
2021/12/30 09:19:33;;;;;;;77.55;38.10;;;;;;;3.36;98.28;100345.09;1681017;84;25953;-82
2021/12/30 09:21:59;;;;;;;83.05;38.98;;;;;;;3.38;98.13;100347.10;1694184;83;27461;-82
2021/12/30 09:24:26;;;;;;;76.60;37.13;;;;;;;3.40;98.01;100337.20;1683947;84;25761;-83
2021/12/30 09:26:52;;;;;;;79.40;37.05;;;;;;;3.42;97.94;100338.40;1687943;82;25920;-81
2021/12/30 09:29:18;;;;;;;80.70;39.40;;;;;;;3.44;97.82;100337.27;1689079;84;25979;-81
2021/12/30 09:31:48;;;;;;;84.05;40.20;;;;;;;3.44;97.73;100337.27;1691076;82;26569;-82
2021/12/30 09:34:15;;;;;;;79.35;38.85;;;;;;;3.45;97.67;100331.47;1662171;84;27477;-81
2021/12/30 09:36:42;;;;;;;81.42;41.42;;;;;;;3.46;97.77;100333.14;1678004;83;25954;-81
2021/12/30 09:39:12;;;;;;;82.05;39.55;;;;;;;3.47;97.68;100332.15;1686847;83;25975;-81
2021/12/30 09:41:43;;;;;;;75.72;36.80;;;;;;;3.46;97.65;100333.98;1688467;82;26591;-80
2021/12/30 09:44:13;;;;;;;74.32;37.63;;;;;;;3.44;97.70;100333.30;1692850;83;25866;-81
2021/12/30 09:46:41;;;;;;;77.03;37.63;;;;;;;3.45;97.85;100335.44;1690963;82;27457;-81
2021/12/30 09:49:12;;;;;;;77.87;38.08;;;;;;;3.40;97.88;100327.94;1654310;84;26005;-81
2021/12/30 09:51:42;;;;;;;76.67;38.78;;;;;;;3.44;98.00;100343.05;1674105;83;25880;-81
2021/12/30 09:54:10;;;;;;;85.32;41.28;;;;;;;3.46;98.17;100340.61;1696690;83;25909;-81
2021/12/30 09:56:37;;;;;;;85.05;39.27;;;;;;;3.48;98.29;100339.13;1682690;83;25353;-81
2021/12/30 09:59:06;;;;;;;76.25;40.15;;;;;;;3.50;98.34;100332.70;1667186;85;28289;-82
2021/12/30 10:01:32;;;;;;;82.12;41.53;;;;;;;3.53;98.22;100326.29;1694840;83;25841;-81
2021/12/30 10:04:02;;;;;;;78.95;40.67;;;;;;;3.56;98.21;100328.62;1681250;83;26536;-85
2021/12/30 10:06:30;;;;;;;86.50;41.53;;;;;;;3.58;98.05;100330.62;1668610;83;25422;-82
2021/12/30 10:09:09;;;;;;;80.28;39.60;;;;;;;3.58;97.83;100325.33;1643727;86;26703;-82
2021/12/30 10:11:49;;;;;;;79.95;40.63;;;;;;;3.60;97.88;100326.02;1651961;85;27499;-82
2021/12/30 10:14:28;;;;;;;82.95;40.83;;;;;;;3.64;97.87;100330.03;1677977;85;25987;-82
2021/12/30 10:17:22;;;;;;;82.22;41.70;;;;;;;3.63;97.80;100326.57;1673300;85;26001;-82
2021/12/30 10:19:52;;;;;;;84.83;41.50;;;;;;;3.65;97.92;100323.77;1674429;84;25996;-82
2021/12/30 10:22:23;;;;;;;87.42;42.43;;;;;;;3.67;97.90;100321.31;1676517;84;26634;-84
2021/12/30 10:24:51;;;;;;;80.28;40.60;;;;;;;3.70;97.96;100324.16;1647719;86;28318;-84
2021/12/30 10:27:26;;;;;;;92.53;43.78;;;;;;;3.72;97.93;100316.89;1675802;84;25971;-83
2021/12/30 10:29:55;;;;;;;78.10;39.80;;;;;;;3.75;97.95;100321.39;1675716;83;25859;-82
2021/12/30 10:32:25;;;;;;;80.87;41.45;;;;;;;3.77;97.91;100318.09;1676489;84;25973;-83
2021/12/30 10:35:12;;;;;;;84.30;42.43;;;;;;;3.78;97.88;100319.78;1651430;84;25778;-83
2021/12/30 10:37:46;;;;;;;77.47;40.65;;;;;;;3.80;97.92;100316.48;1686746;84;27489;-83
2021/12/30 10:40:32;;;;;;;88.42;41.30;;;;;;;3.81;97.94;100317.30;1644330;86;25877;-83
2021/12/30 10:43:33;;;;;;;83.58;40.75;;;;;;;3.85;98.07;100316.00;1678324;84;26105;-83
2021/12/30 10:46:17;;;;;;;77.27;37.60;;;;;;;3.87;98.13;100316.20;1666357;84;25822;-83
2021/12/30 10:49:12;;;;;;;86.50;40.95;;;;;;;3.88;98.13;100315.23;1677803;85;25920;-82
2021/12/30 10:51:48;;;;;;;87.47;40.95;;;;;;;3.93;98.19;100315.27;1648635;86;28370;-83
2021/12/30 10:54:30;;;;;;;83.40;40.33;;;;;;;3.95;98.26;100310.65;1683512;84;25919;-83
2021/12/30 10:57:06;;;;;;;82.30;39.48;;;;;;;3.97;98.25;100320.61;1682066;84;25889;-83
2021/12/30 10:59:42;;;;;;;76.07;38.85;;;;;;;3.99;98.20;100319.95;1675906;85;26127;-82
2021/12/30 11:02:17;;;;;;;85.67;41.48;;;;;;;4.00;98.22;100312.36;1654969;84;25933;-82
2021/12/30 11:04:56;;;;;;;84.35;40.52;;;;;;;4.01;98.27;100310.88;1684821;84;26878;-82
2021/12/30 11:07:43;;;;;;;78.10;39.38;;;;;;;4.06;98.41;100312.59;1686634;84;25746;-82
2021/12/30 11:10:11;;;;;;;77.85;39.80;;;;;;;4.08;98.39;100307.97;1651980;86;25964;-83
2021/12/30 11:12:42;;;;;;;81.08;38.55;;;;;;;4.10;98.34;100303.34;1675851;84;25392;-82
2021/12/30 11:15:19;;;;;;;79.80;38.13;;;;;;;4.15;98.32;100297.59;1696750;84;25516;-83
2021/12/30 11:17:45;;;;;;;75.83;38.63;;;;;;;4.16;98.26;100301.89;1670932;85;27445;-83
2021/12/30 11:20:14;;;;;;;78.67;39.25;;;;;;;4.19;98.18;100297.63;1682200;84;25921;-82
2021/12/30 11:22:40;;;;;;;81.90;40.48;;;;;;;4.20;98.05;100290.83;1662497;85;25899;-83
2021/12/30 11:25:11;;;;;;;77.53;39.95;;;;;;;4.21;97.95;100296.48;1696010;84;25817;-82
2021/12/30 11:27:38;;;;;;;75.83;40.45;;;;;;;4.23;97.75;100291.86;1688004;84;25980;-83
2021/12/30 11:30:13;;;;;;;81.32;41.08;;;;;;;4.22;97.61;100292.84;1664480;85;27637;-83
2021/12/30 11:32:41;;;;;;;80.77;41.30;;;;;;;4.23;97.49;100287.89;1661792;85;25809;-83